Flight Track Log - Related Links

Times and Time Zones

All times are in EDT time to prevent confusion due to time zone crossing. See the CES5647 flight status page for this flight to view local times or setup timezone preferences in your user account.

Time Position Orientation Groundspeed Altitude Reporting Facility
EDT Latitude Longitude Course Direction KTS MPH feet Rate Location/Type
Wed 11:15:00 AM 31.1490 121.3350 177° South 144 166 3,200  Level FlightAware
Wed 11:15:25 AM 31.1320 121.3360 177° South 143 165 3,800 720 Climbing FlightAware
Wed 11:15:50 AM 31.1180 121.3370 177° South 143 165 3,800 800 Level FlightAware
Wed 11:16:10 AM 31.0970 121.3380 178° South 197 227 4,400 1,067 Climbing FlightAware
Wed 11:16:35 AM 31.0730 121.3320 192° South 234 269 4,600 600 Climbing FlightAware
Wed 11:16:40 AM 31.0660 121.3260 216° Southwest 258 297 4,700 800 Climbing FlightAware
Wed 11:16:50 AM 31.0610 121.3150 242° Southwest 263 303 4,800 2,143 Climbing FlightAware
Wed 11:17:22 AM 31.0570 121.2660 265° West 276 318 6,200 2,800 Climbing FlightAware
Wed 11:17:35 AM 31.0560 121.2450 267° West 285 328 6,900 2,842 Climbing FlightAware
Wed 11:18:00 AM 31.0580 121.2130 274° West 293 337 8,000 3,200 Climbing FlightAware
Wed 11:18:20 AM 31.0630 121.1740 279° West 292 336 9,300 3,091 Climbing FlightAware
Wed 11:19:06 AM 31.0620 121.1020 269° West 300 345 11,400 2,682 Climbing FlightAware
Wed 11:19:45 AM 31.0470 121.0410 254° West 315 362 13,100 2,418 Climbing FlightAware
Wed 11:20:13 AM 31.0380 121.0050 254° West 315 362 14,100 1,247 Climbing FlightAware
Wed 11:21:02 AM 31.0200 120.9290 255° West 315 362 14,700 2,552 Climbing FlightAware
Wed 11:21:40 AM 30.9990 120.8460 254° West 333 383 17,800 2,385 Climbing FlightAware
Wed 11:22:20 AM 30.9850 120.7870 255° West 333 383 17,800  Level FlightAware
Wed 11:22:32 AM 30.9810 120.7690 255° West 333 383 17,800 2,374 Level FlightAware
Wed 11:23:51 AM 30.9430 120.6180 254° West 351 404 21,400 1,878 Climbing FlightAware
Wed 11:24:27 AM 30.9290 120.5630 253° West 351 404 21,400  Level FlightAware
Wed 11:25:03 AM 30.9160 120.5070 255° West 351 404 21,400  Level FlightAware
Wed 11:26:04 AM 30.8920 120.4130 253° West 351 404 21,400 3,375 Level FlightAware
Wed 11:26:23 AM 30.8180 120.3660 209° Southwest 374 430 25,900 6,000 Climbing FlightAware
Wed 11:26:49 AM 30.7900 120.3360 223° Southwest 374 430 25,900  Level FlightAware
Wed 11:32:00 AM 30.3696 119.9858 214° Southwest  Level Estimated
Wed 11:33:00 AM 30.3008 119.9330 214° Southwest  Level Estimated
Wed 11:34:00 AM 30.2319 119.8803 213° Southwest  Level Estimated
Wed 11:35:00 AM 30.1631 119.8277 213° Southwest  Level Estimated
Wed 11:36:00 AM 30.0942 119.7751 213° Southwest  Level Estimated
Wed 11:37:00 AM 30.0253 119.7226 213° Southwest  Level Estimated
Wed 11:38:00 AM 29.9564 119.6701 213° Southwest  Level Estimated
Wed 11:39:00 AM 29.8874 119.6178 213° Southwest  Level Estimated
Wed 11:40:00 AM 29.8185 119.5655 213° Southwest  Level Estimated
Wed 11:41:00 AM 29.7495 119.5133 213° Southwest  Level Estimated
Wed 11:42:00 AM 29.6805 119.4611 213° Southwest  Level Estimated
Wed 11:43:00 AM 29.6114 119.4090 213° Southwest  Level Estimated
Wed 11:44:00 AM 29.5424 119.3570 213° Southwest  Level Estimated
Wed 11:45:00 AM 29.4733 119.3051 213° Southwest  Level Estimated
Wed 11:46:00 AM 29.4042 119.2533 213° Southwest  Level Estimated
Wed 11:47:00 AM 29.3351 119.2015 213° Southwest  Level Estimated
Wed 11:48:00 AM 29.2660 119.1497 213° Southwest  Level Estimated
Wed 11:49:00 AM 29.1968 119.0981 213° Southwest  Level Estimated
Wed 11:50:00 AM 29.1277 119.0465 213° Southwest  Level Estimated
Wed 11:51:00 AM 29.0585 118.9950 213° Southwest  Level Estimated
Wed 11:52:00 AM 28.9893 118.9436 213° Southwest  Level Estimated
Wed 11:53:00 AM 28.9200 118.8922 213° Southwest  Level Estimated
Wed 11:54:00 AM 28.8508 118.8409 213° Southwest  Level Estimated
Wed 11:55:00 AM 28.7815 118.7896 213° Southwest  Level Estimated
Wed 11:56:00 AM 28.7123 118.7385 213° Southwest  Level Estimated
Wed 11:57:00 AM 28.6430 118.6874 213° Southwest  Level Estimated
Wed 11:58:00 AM 28.5737 118.6363 213° Southwest  Level Estimated
Wed 11:59:00 AM 28.5043 118.5854 213° Southwest  Level Estimated
Wed 12:00:00 PM 28.4349 118.5345 213° Southwest  Level Estimated
Wed 12:01:00 PM 28.3656 118.4836 213° Southwest  Level Estimated
Wed 12:02:00 PM 28.2962 118.4329 213° Southwest  Level Estimated
Wed 12:03:00 PM 28.2267 118.3822 213° Southwest  Level Estimated
Wed 12:04:00 PM 28.1573 118.3315 213° Southwest  Level Estimated
Wed 12:05:00 PM 28.0760 118.2723 213° Southwest  Level Estimated
Wed 12:06:00 PM 27.9947 118.2133 213° Southwest  Level Estimated
Wed 12:07:00 PM 27.9134 118.1543 213° Southwest  Level Estimated
Wed 12:08:00 PM 27.8321 118.0954 213° Southwest  Level Estimated
Wed 12:09:00 PM 27.7507 118.0366 213° Southwest  Level Estimated
Wed 12:10:00 PM 27.7019 118.0014 213° Southwest  Level Estimated
Wed 12:11:00 PM 27.7019 118.0014 348° North  Level Estimated
Wed 12:12:00 PM 27.7019 118.0014 348° North  Level Estimated
Wed 12:13:00 PM 27.7019 118.0014 348° North  Level Estimated
Wed 12:14:00 PM 27.7019 118.0014 348° North  Level Estimated
Wed 12:15:00 PM 27.7019 118.0014 348° North  Level Estimated
Wed 12:16:00 PM 27.7019 118.0014 348° North  Level Estimated

Login

Don't have an account? Register now (free) for customized features, flight alerts, and more!